createdAt,value
2023-11-18T00:02:40.237Z,2.69
2023-11-18T00:05:31.176Z,2.66
2023-11-18T00:08:21.917Z,2.56
2023-11-18T00:11:12.650Z,2.53
2023-11-18T00:14:05.884Z,2.53
2023-11-18T00:16:56.740Z,2.49
2023-11-18T00:19:48.596Z,2.48
2023-11-18T00:22:40.790Z,2.48
2023-11-18T00:25:32.823Z,2.45
2023-11-18T00:28:23.735Z,2.48
2023-11-18T00:31:14.602Z,2.52
2023-11-18T00:34:05.563Z,2.53
2023-11-18T00:37:00.213Z,2.55
2023-11-18T00:39:50.942Z,2.53
2023-11-18T00:42:41.645Z,2.62
2023-11-18T00:45:32.384Z,2.70
2023-11-18T00:48:23.241Z,2.70
2023-11-18T00:51:14.130Z,2.69
2023-11-18T00:54:08.966Z,2.67
2023-11-18T00:56:59.750Z,2.70
2023-11-18T00:59:51.118Z,2.76
2023-11-18T01:02:43.633Z,2.83
2023-11-18T01:05:34.389Z,2.84
2023-11-18T01:08:25.999Z,2.91
2023-11-18T01:11:21.063Z,2.87
2023-11-18T01:14:12.967Z,2.91
2023-11-18T01:17:04.179Z,2.91
2023-11-18T01:19:54.999Z,2.94
2023-11-18T01:22:46.969Z,2.91
2023-11-18T01:25:37.806Z,2.91
2023-11-18T01:28:30.601Z,2.97
2023-11-18T01:31:21.443Z,2.97
2023-11-18T01:34:13.412Z,2.97
2023-11-18T01:37:05.978Z,3.00
2023-11-18T01:39:56.674Z,2.95
2023-11-18T01:42:47.976Z,2.97
2023-11-18T01:45:38.907Z,3.00
2023-11-18T01:48:32.057Z,3.04
2023-11-18T01:51:24.628Z,3.04
2023-11-18T01:54:20.082Z,3.05
2023-11-18T01:57:11.352Z,3.08
2023-11-18T02:00:07.099Z,3.14
2023-11-18T02:02:57.952Z,3.15
2023-11-18T02:05:48.896Z,3.19
2023-11-18T02:08:39.926Z,3.22
2023-11-18T02:11:43.948Z,3.25
2023-11-18T02:14:38.370Z,3.25
2023-11-18T02:17:30.578Z,3.21
2023-11-18T02:20:22.530Z,3.21
2023-11-18T02:23:13.398Z,3.16
2023-11-18T02:26:04.559Z,3.19
2023-11-18T02:28:55.360Z,3.16
2023-11-18T02:31:47.981Z,3.12
2023-11-18T02:34:52.728Z,3.11
2023-11-18T02:37:48.993Z,3.07
2023-11-18T02:40:44.529Z,3.07
2023-11-18T02:43:38.411Z,3.05
2023-11-18T02:46:29.416Z,3.09
2023-11-18T02:49:20.194Z,3.12
2023-11-18T02:52:11.126Z,3.11
2023-11-18T02:55:01.983Z,3.11
2023-11-18T02:57:55.461Z,3.09
2023-11-18T03:00:46.338Z,3.05
2023-11-18T03:03:37.692Z,3.11
2023-11-18T03:06:28.454Z,3.11
2023-11-18T03:09:19.955Z,3.12
2023-11-18T03:12:11.041Z,3.15
2023-11-18T03:15:02.162Z,3.18
2023-11-18T03:17:53.635Z,3.22
2023-11-18T03:20:44.586Z,3.25
2023-11-18T03:23:35.416Z,3.29
2023-11-18T03:26:27.304Z,3.29
2023-11-18T03:29:18.437Z,3.26
2023-11-18T03:32:09.243Z,3.21
2023-11-18T03:35:03.463Z,3.21
2023-11-18T03:37:54.713Z,3.21
2023-11-18T03:40:46.327Z,3.14
2023-11-18T03:43:39.027Z,3.12
2023-11-18T03:46:35.593Z,3.07
2023-11-18T03:49:26.662Z,3.04
2023-11-18T03:52:17.365Z,3.07
2023-11-18T03:55:09.411Z,3.16
2023-11-18T03:58:00.376Z,3.15
2023-11-18T04:00:51.175Z,3.16
2023-11-18T04:03:43.142Z,3.15
2023-11-18T04:06:33.902Z,3.14
2023-11-18T04:09:24.740Z,3.09
2023-11-18T04:12:17.513Z,3.11
2023-11-18T04:15:08.890Z,3.09
2023-11-18T04:17:59.715Z,3.14
2023-11-18T04:20:51.820Z,3.15
2023-11-18T04:23:43.962Z,3.14
2023-11-18T04:26:34.785Z,3.11
2023-11-18T04:29:25.536Z,3.12
2023-11-18T04:32:17.111Z,3.09
2023-11-18T04:35:08.500Z,3.11
2023-11-18T04:37:59.550Z,3.14
2023-11-18T04:40:50.898Z,3.15
2023-11-18T04:43:45.923Z,3.14
2023-11-18T04:46:38.354Z,3.09
2023-11-18T04:49:29.326Z,3.11
2023-11-18T04:52:20.126Z,3.14
2023-11-18T04:55:13.992Z,3.14
2023-11-18T04:58:07.031Z,3.14
2023-11-18T05:00:57.914Z,3.16
2023-11-18T05:03:48.883Z,3.21
2023-11-18T05:06:39.833Z,3.21
2023-11-18T05:09:30.632Z,3.21
2023-11-18T05:12:21.479Z,3.15
2023-11-18T05:15:12.205Z,3.12
2023-11-18T05:18:03.075Z,3.16
2023-11-18T05:20:55.580Z,3.14
2023-11-18T05:23:46.344Z,3.12
2023-11-18T05:26:37.059Z,3.12
2023-11-18T05:29:29.020Z,3.07
2023-11-18T05:32:21.633Z,3.03
2023-11-18T05:35:13.165Z,2.95
2023-11-18T05:38:07.562Z,2.86
2023-11-18T05:40:58.550Z,2.79
2023-11-18T05:43:52.816Z,2.73
2023-11-18T05:46:47.499Z,2.63
2023-11-18T05:49:39.467Z,2.46
2023-11-18T05:52:30.186Z,2.25
2023-11-18T05:55:21.358Z,2.17
2023-11-18T05:58:12.188Z,2.11
2023-11-18T06:01:03.548Z,2.08
2023-11-18T06:03:54.708Z,2.08
2023-11-18T06:06:45.568Z,2.04
2023-11-18T06:09:36.306Z,2.04
2023-11-18T06:12:28.039Z,2.04
2023-11-18T06:15:20.141Z,2.08
2023-11-18T06:18:11.158Z,2.08
2023-11-18T06:21:02.004Z,2.11
2023-11-18T06:23:53.035Z,2.15
2023-11-18T06:26:43.839Z,2.19
2023-11-18T06:29:34.602Z,2.22
2023-11-18T06:32:26.994Z,2.29
2023-11-18T06:35:17.803Z,2.35
2023-11-18T06:38:08.808Z,2.44
2023-11-18T06:41:01.097Z,2.44
2023-11-18T06:44:00.779Z,2.38
2023-11-18T06:46:52.403Z,2.36
2023-11-18T06:49:43.347Z,2.41
2023-11-18T06:52:39.724Z,2.38
2023-11-18T06:55:30.969Z,2.35
2023-11-18T06:58:21.709Z,2.35
2023-11-18T07:01:16.790Z,2.36
2023-11-18T07:04:10.965Z,2.41
2023-11-18T07:07:02.935Z,2.48
2023-11-18T07:09:53.668Z,2.56
2023-11-18T07:12:44.342Z,2.57
2023-11-18T07:15:35.437Z,2.63
2023-11-18T07:18:26.209Z,2.70
2023-11-18T07:21:16.904Z,2.75
2023-11-18T07:24:08.297Z,2.70
2023-11-18T07:27:01.198Z,2.73
2023-11-18T07:29:52.437Z,2.77
2023-11-18T07:32:43.208Z,2.80
2023-11-18T07:35:33.900Z,2.84
2023-11-18T07:38:24.730Z,2.83
2023-11-18T07:41:24.747Z,2.76
2023-11-18T07:44:17.296Z,2.73
2023-11-18T07:47:08.384Z,2.70
2023-11-18T07:50:00.538Z,2.76
2023-11-18T07:52:51.980Z,2.79
2023-11-18T07:55:43.411Z,2.86
2023-11-18T07:58:38.395Z,2.91
2023-11-18T08:01:29.216Z,2.95
2023-11-18T08:04:22.095Z,3.03
2023-11-18T08:07:13.065Z,2.97
2023-11-18T08:10:07.279Z,2.91
2023-11-18T08:12:58.020Z,2.87
2023-11-18T08:15:48.782Z,2.77
2023-11-18T08:18:40.345Z,2.76
2023-11-18T08:21:31.565Z,2.66
2023-11-18T08:24:23.023Z,2.69
2023-11-18T08:27:13.729Z,2.60
2023-11-18T08:30:12.237Z,2.63
2023-11-18T08:33:06.677Z,2.67
2023-11-18T08:35:57.884Z,2.76
2023-11-18T08:38:48.640Z,2.73
2023-11-18T08:41:39.955Z,2.65
2023-11-18T08:44:30.857Z,2.59
2023-11-18T08:47:22.233Z,2.52
2023-11-18T08:50:15.733Z,2.45
2023-11-18T08:53:06.996Z,2.45
2023-11-18T08:55:57.959Z,2.42
2023-11-18T08:58:50.693Z,2.27
2023-11-18T09:01:43.505Z,2.19
2023-11-18T09:04:34.949Z,2.14
2023-11-18T09:07:25.725Z,2.14
2023-11-18T09:10:18.203Z,2.10
2023-11-18T09:13:09.120Z,2.08
2023-11-18T09:16:03.690Z,2.02
2023-11-18T09:18:54.623Z,1.95
2023-11-18T09:21:45.710Z,1.87
2023-11-18T09:24:37.857Z,1.87
2023-11-18T09:27:30.380Z,1.91
2023-11-18T09:30:21.132Z,1.97
2023-11-18T09:33:15.422Z,1.95
2023-11-18T09:36:09.040Z,1.94
2023-11-18T09:39:00.549Z,1.83
2023-11-18T09:41:52.704Z,1.79
2023-11-18T09:44:45.158Z,1.72
2023-11-18T09:47:48.593Z,1.73
2023-11-18T09:50:39.809Z,1.69
2023-11-18T09:53:38.220Z,1.67
2023-11-18T09:56:45.013Z,1.63
2023-11-18T10:00:00.425Z,1.60
2023-11-18T10:02:52.874Z,1.67
2023-11-18T10:05:45.380Z,1.72
2023-11-18T10:08:39.302Z,1.74
2023-11-18T10:11:30.547Z,1.87
2023-11-18T10:14:21.270Z,1.98
2023-11-18T10:17:15.829Z,2.11
2023-11-18T10:20:14.439Z,2.25
2023-11-18T10:23:12.626Z,2.28
2023-11-18T10:26:05.270Z,2.22
2023-11-18T10:28:56.157Z,2.29
2023-11-18T10:31:47.110Z,2.28
2023-11-18T10:34:38.846Z,2.28
2023-11-18T10:37:32.669Z,2.36
2023-11-18T10:40:25.290Z,2.42
2023-11-18T10:43:18.137Z,2.41
2023-11-18T10:46:14.864Z,2.34
2023-11-18T10:49:11.124Z,2.29
2023-11-18T10:52:05.218Z,2.21
2023-11-18T10:54:57.279Z,2.17
2023-11-18T10:57:48.116Z,2.17
2023-11-18T11:00:54.503Z,2.08
2023-11-18T11:03:57.322Z,2.07
2023-11-18T11:06:54.924Z,2.05
2023-11-18T11:09:47.207Z,2.00
2023-11-18T11:12:54.264Z,1.93
2023-11-18T11:15:52.163Z,1.93
2023-11-18T11:18:54.630Z,1.91
2023-11-18T11:21:56.667Z,1.86
2023-11-18T11:25:10.516Z,1.87
2023-11-18T11:28:16.754Z,1.80
2023-11-18T11:31:19.474Z,1.86
2023-11-18T11:34:21.666Z,1.94
2023-11-18T11:37:13.359Z,1.94
2023-11-18T11:40:11.265Z,1.90
2023-11-18T11:43:05.992Z,1.89
2023-11-18T11:45:57.074Z,1.90
2023-11-18T11:48:49.069Z,1.91
2023-11-18T11:52:04.673Z,1.95
2023-11-18T11:55:14.449Z,2.00
2023-11-18T11:58:07.663Z,1.94
2023-11-18T12:01:08.713Z,1.89
2023-11-18T12:04:08.299Z,1.83
2023-11-18T12:07:09.239Z,1.84
2023-11-18T12:10:14.824Z,1.93
2023-11-18T12:13:22.518Z,1.95
2023-11-18T12:16:17.568Z,1.95
2023-11-18T12:19:45.921Z,1.94
2023-11-18T12:23:16.132Z,1.91
2023-11-18T12:26:41.420Z,1.89
2023-11-18T12:29:35.366Z,1.79
2023-11-18T12:32:57.201Z,1.79
2023-11-18T12:36:02.672Z,1.74
2023-11-18T12:39:52.093Z,1.73
2023-11-18T12:43:11.613Z,1.74
2023-11-18T12:46:46.205Z,1.72
2023-11-18T12:49:42.282Z,1.69
2023-11-18T12:52:34.182Z,1.67
2023-11-18T12:55:27.646Z,1.64
2023-11-18T12:58:19.237Z,1.55
2023-11-18T13:01:15.451Z,1.51
2023-11-18T13:04:06.648Z,1.51
2023-11-18T13:06:59.324Z,1.48
2023-11-18T13:09:50.904Z,1.49
2023-11-18T13:12:43.608Z,1.48
2023-11-18T13:15:35.526Z,1.48
2023-11-18T13:18:27.766Z,1.48
2023-11-18T13:21:21.546Z,1.53
2023-11-18T13:24:13.361Z,1.56
2023-11-18T13:27:05.513Z,1.49
2023-11-18T13:29:56.406Z,1.52
2023-11-18T13:32:47.460Z,1.45
2023-11-18T13:35:38.375Z,1.43
2023-11-18T13:38:30.473Z,1.43
2023-11-18T13:41:33.767Z,1.46
2023-11-18T13:44:40.698Z,1.45
2023-11-18T13:47:33.729Z,1.42
2023-11-18T13:50:26.204Z,1.42
2023-11-18T13:53:17.395Z,1.42
2023-11-18T13:56:10.345Z,1.43
2023-11-18T13:59:01.316Z,1.39
2023-11-18T14:01:57.442Z,1.35
2023-11-18T14:04:49.737Z,1.34
2023-11-18T14:07:40.910Z,1.31
2023-11-18T14:10:31.664Z,1.31
2023-11-18T14:13:23.323Z,1.34
2023-11-18T14:16:14.504Z,1.28
2023-11-18T14:19:06.867Z,1.31
2023-11-18T14:21:58.604Z,1.27
2023-11-18T14:24:49.406Z,1.28
2023-11-18T14:27:40.136Z,1.25
2023-11-18T14:30:31.461Z,1.27
2023-11-18T14:33:22.228Z,1.27
2023-11-18T14:36:12.962Z,1.24
2023-11-18T14:39:04.591Z,1.24
2023-11-18T14:41:55.615Z,1.27
2023-11-18T14:44:46.424Z,1.25
2023-11-18T14:47:37.304Z,1.25
2023-11-18T14:50:28.890Z,1.28
2023-11-18T14:53:20.457Z,1.28
2023-11-18T14:56:11.879Z,1.28
2023-11-18T14:59:02.662Z,1.32
2023-11-18T15:01:58.212Z,1.35
2023-11-18T15:04:49.484Z,1.28
2023-11-18T15:07:40.633Z,1.30
2023-11-18T15:10:31.438Z,1.34
2023-11-18T15:13:22.162Z,1.35
2023-11-18T15:16:12.987Z,1.27
2023-11-18T15:19:04.633Z,1.22
2023-11-18T15:21:55.324Z,1.24
2023-11-18T15:24:48.762Z,1.28
2023-11-18T15:27:45.530Z,1.28
2023-11-18T15:30:40.877Z,1.34
2023-11-18T15:33:32.830Z,1.31
2023-11-18T15:36:24.468Z,1.28
2023-11-18T15:39:16.060Z,1.34
2023-11-18T15:42:07.020Z,1.35
2023-11-18T15:44:58.465Z,1.36
2023-11-18T15:47:50.495Z,1.38
2023-11-18T15:50:41.274Z,1.41
2023-11-18T15:53:32.052Z,1.42
2023-11-18T15:56:23.939Z,1.41
2023-11-18T15:59:15.512Z,1.38
2023-11-18T16:02:06.883Z,1.38
2023-11-18T16:04:57.789Z,1.35
2023-11-18T16:07:55.500Z,1.32
2023-11-18T16:10:46.502Z,1.36
2023-11-18T16:13:37.263Z,1.32
2023-11-18T16:16:28.651Z,1.32
2023-11-18T16:19:20.962Z,1.32
2023-11-18T16:22:11.739Z,1.38
2023-11-18T16:25:05.248Z,1.39
2023-11-18T16:27:59.535Z,1.39
2023-11-18T16:30:51.964Z,1.36
2023-11-18T16:33:44.570Z,1.36
2023-11-18T16:36:35.383Z,1.35
2023-11-18T16:39:27.271Z,1.39
2023-11-18T16:42:20.134Z,1.41
2023-11-18T16:45:12.611Z,1.39
2023-11-18T16:48:05.723Z,1.36
2023-11-18T16:50:56.628Z,1.35
2023-11-18T16:53:47.383Z,1.38
2023-11-18T16:56:38.140Z,1.42
2023-11-18T16:59:29.051Z,1.49
2023-11-18T17:02:20.546Z,1.49
2023-11-18T17:05:11.536Z,1.46
2023-11-18T17:08:02.832Z,1.43
2023-11-18T17:10:55.051Z,1.46
2023-11-18T17:13:46.011Z,1.45
2023-11-18T17:16:36.703Z,1.48
2023-11-18T17:19:27.560Z,1.51
2023-11-18T17:22:18.290Z,1.55
2023-11-18T17:25:11.756Z,1.56
2023-11-18T17:28:05.674Z,1.59
2023-11-18T17:30:56.847Z,1.60
2023-11-18T17:33:47.565Z,1.64
2023-11-18T17:36:38.358Z,1.59
2023-11-18T17:39:29.129Z,1.56
2023-11-18T17:42:19.950Z,1.56
2023-11-18T17:45:13.102Z,1.56
2023-11-18T17:48:07.348Z,1.53
2023-11-18T17:51:00.059Z,1.51
2023-11-18T17:53:50.929Z,1.48
2023-11-18T17:56:42.633Z,1.52
2023-11-18T17:59:33.410Z,1.51
2023-11-18T18:02:24.320Z,1.51
2023-11-18T18:05:15.204Z,1.46
2023-11-18T18:08:06.299Z,1.42
2023-11-18T18:10:57.117Z,1.41
2023-11-18T18:13:47.853Z,1.45
2023-11-18T18:16:38.584Z,1.42
2023-11-18T18:19:29.325Z,1.43
2023-11-18T18:22:20.079Z,1.46
2023-11-18T18:25:11.129Z,1.53
2023-11-18T18:28:02.056Z,1.51
2023-11-18T18:30:54.595Z,1.48
2023-11-18T18:33:45.735Z,1.46
2023-11-18T18:36:37.304Z,1.48
2023-11-18T18:39:28.084Z,1.55
2023-11-18T18:42:18.843Z,1.52
2023-11-18T18:45:11.465Z,1.52
2023-11-18T18:48:03.455Z,1.49
2023-11-18T18:50:54.221Z,1.55
2023-11-18T18:53:46.640Z,1.55
2023-11-18T18:56:39.164Z,1.55
2023-11-18T18:59:30.051Z,1.55
2023-11-18T19:02:21.934Z,1.53
2023-11-18T19:05:15.832Z,1.53
2023-11-18T19:08:06.593Z,1.55
2023-11-18T19:10:57.736Z,1.56
2023-11-18T19:13:48.522Z,1.55
2023-11-18T19:16:41.990Z,1.51
2023-11-18T19:19:34.170Z,1.52
2023-11-18T19:22:25.520Z,1.53
2023-11-18T19:25:17.063Z,1.46
2023-11-18T19:28:10.591Z,1.43
2023-11-18T19:31:01.445Z,1.51
2023-11-18T19:33:52.214Z,1.53
2023-11-18T19:36:42.979Z,1.53
2023-11-18T19:39:40.432Z,1.56
2023-11-18T19:42:31.630Z,1.56
2023-11-18T19:45:23.224Z,1.56
2023-11-18T19:48:14.744Z,1.59
2023-11-18T19:51:08.627Z,1.58
2023-11-18T19:53:59.646Z,1.58
2023-11-18T19:56:50.515Z,1.56
2023-11-18T19:59:41.380Z,1.55
2023-11-18T20:02:32.425Z,1.53
2023-11-18T20:05:23.532Z,1.48
2023-11-18T20:08:14.382Z,1.46
2023-11-18T20:11:10.667Z,1.51
2023-11-18T20:14:01.696Z,1.53
2023-11-18T20:16:52.841Z,1.52
2023-11-18T20:19:43.509Z,1.49
2023-11-18T20:22:36.588Z,1.48
2023-11-18T20:25:28.162Z,1.49
2023-11-18T20:28:18.898Z,1.42
2023-11-18T20:31:10.117Z,1.38
2023-11-18T20:34:00.917Z,1.31
2023-11-18T20:36:51.902Z,1.28
2023-11-18T20:39:42.657Z,1.30
2023-11-18T20:42:33.367Z,1.31
2023-11-18T20:45:25.157Z,1.28
2023-11-18T20:48:15.894Z,1.31
2023-11-18T20:51:08.917Z,1.34
2023-11-18T20:54:03.867Z,1.30
2023-11-18T20:56:54.678Z,1.30
2023-11-18T20:59:45.406Z,1.31
2023-11-18T21:02:37.111Z,1.35
2023-11-18T21:05:28.395Z,1.38
2023-11-18T21:08:19.367Z,1.38
2023-11-18T21:11:10.375Z,1.36
2023-11-18T21:14:01.286Z,1.31
2023-11-18T21:16:52.234Z,1.27
2023-11-18T21:19:43.269Z,1.28
2023-11-18T21:22:34.047Z,1.24
2023-11-18T21:25:24.843Z,1.27
2023-11-18T21:28:15.542Z,1.35
2023-11-18T21:31:08.210Z,1.42
2023-11-18T21:33:59.230Z,1.45
2023-11-18T21:36:49.934Z,1.43
2023-11-18T21:39:40.703Z,1.42
2023-11-18T21:42:32.406Z,1.46
2023-11-18T21:45:28.654Z,1.49
2023-11-18T21:48:22.199Z,1.49
2023-11-18T21:51:14.744Z,1.46
2023-11-18T21:54:05.975Z,1.36
2023-11-18T21:56:56.962Z,1.41
2023-11-18T21:59:47.790Z,1.38
2023-11-18T22:02:44.489Z,1.38
2023-11-18T22:05:35.541Z,1.38
2023-11-18T22:08:26.335Z,1.34
2023-11-18T22:11:20.255Z,1.41
2023-11-18T22:14:11.794Z,1.48
2023-11-18T22:17:02.615Z,1.49
2023-11-18T22:19:53.836Z,1.53
2023-11-18T22:22:44.594Z,1.55
2023-11-18T22:25:35.323Z,1.49
2023-11-18T22:28:26.080Z,1.51
2023-11-18T22:31:17.334Z,1.45
2023-11-18T22:34:08.184Z,1.43
2023-11-18T22:36:58.904Z,1.48
2023-11-18T22:39:49.894Z,1.46
2023-11-18T22:42:44.232Z,1.39
2023-11-18T22:45:35.051Z,1.41
2023-11-18T22:48:26.884Z,1.42
2023-11-18T22:51:17.817Z,1.39
2023-11-18T22:54:12.158Z,1.38
2023-11-18T22:57:03.612Z,1.36
2023-11-18T22:59:54.317Z,1.30
2023-11-18T23:02:45.127Z,1.30
2023-11-18T23:05:37.572Z,1.31
2023-11-18T23:08:28.427Z,1.32
2023-11-18T23:11:19.273Z,1.35
2023-11-18T23:14:10.052Z,1.34
2023-11-18T23:17:08.225Z,1.32
2023-11-18T23:20:00.328Z,1.36
2023-11-18T23:22:52.006Z,1.36
2023-11-18T23:25:42.753Z,1.32
2023-11-18T23:28:34.430Z,1.32
2023-11-18T23:31:26.218Z,1.30
2023-11-18T23:34:17.867Z,1.25
2023-11-18T23:37:09.072Z,1.25
2023-11-18T23:39:59.822Z,1.25
2023-11-18T23:42:50.717Z,1.25
2023-11-18T23:45:42.505Z,1.28
2023-11-18T23:48:38.095Z,1.30
2023-11-18T23:51:29.968Z,1.30
2023-11-18T23:54:24.986Z,1.31
2023-11-18T23:57:16.244Z,1.28
